sensor_id;sensor_type;location;lat;lon;timestamp;P1;durP1;ratioP1;P2;durP2;ratioP2
19675;SDS011;39539;52.202;9.876;2022-10-16T00:00:29;2.00;;;1.20;;
19675;SDS011;39539;52.202;9.876;2022-10-16T00:02:55;1.35;;;1.35;;
19675;SDS011;39539;52.202;9.876;2022-10-16T00:05:20;1.98;;;1.77;;
19675;SDS011;39539;52.202;9.876;2022-10-16T00:07:46;1.65;;;1.40;;
19675;SDS011;39539;52.202;9.876;2022-10-16T00:10:11;1.60;;;1.50;;
19675;SDS011;39539;52.202;9.876;2022-10-16T00:12:36;1.33;;;1.13;;
19675;SDS011;39539;52.202;9.876;2022-10-16T00:15:02;2.65;;;1.50;;
19675;SDS011;39539;52.202;9.876;2022-10-16T00:17:27;1.42;;;1.20;;
19675;SDS011;39539;52.202;9.876;2022-10-16T00:19:55;1.30;;;1.20;;
19675;SDS011;39539;52.202;9.876;2022-10-16T00:22:21;1.23;;;1.23;;
19675;SDS011;39539;52.202;9.876;2022-10-16T00:24:47;1.55;;;1.30;;
19675;SDS011;39539;52.202;9.876;2022-10-16T00:27:12;1.60;;;1.48;;
19675;SDS011;39539;52.202;9.876;2022-10-16T00:29:37;2.03;;;1.15;;
19675;SDS011;39539;52.202;9.876;2022-10-16T00:32:03;1.58;;;1.48;;
19675;SDS011;39539;52.202;9.876;2022-10-16T00:34:28;1.42;;;1.30;;
19675;SDS011;39539;52.202;9.876;2022-10-16T00:36:54;1.40;;;1.30;;
19675;SDS011;39539;52.202;9.876;2022-10-16T00:39:19;1.30;;;1.20;;
19675;SDS011;39539;52.202;9.876;2022-10-16T00:41:44;1.38;;;1.27;;
19675;SDS011;39539;52.202;9.876;2022-10-16T00:47:08;2.40;;;1.33;;
19675;SDS011;39539;52.202;9.876;2022-10-16T00:49:37;1.50;;;1.40;;
19675;SDS011;39539;52.202;9.876;2022-10-16T00:52:02;1.90;;;1.80;;
19675;SDS011;39539;52.202;9.876;2022-10-16T00:54:29;1.70;;;1.60;;
19675;SDS011;39539;52.202;9.876;2022-10-16T00:56:58;1.95;;;1.85;;
19675;SDS011;39539;52.202;9.876;2022-10-16T00:59:31;2.40;;;1.80;;
19675;SDS011;39539;52.202;9.876;2022-10-16T01:01:59;2.90;;;2.20;;
19675;SDS011;39539;52.202;9.876;2022-10-16T01:04:25;2.20;;;1.92;;
19675;SDS011;39539;52.202;9.876;2022-10-16T01:14:47;2.88;;;2.67;;
19675;SDS011;39539;52.202;9.876;2022-10-16T01:18:01;2.80;;;2.60;;
19675;SDS011;39539;52.202;9.876;2022-10-16T01:23:03;3.20;;;2.67;;
19675;SDS011;39539;52.202;9.876;2022-10-16T01:28:36;3.03;;;2.80;;
19675;SDS011;39539;52.202;9.876;2022-10-16T01:31:06;2.88;;;2.67;;
19675;SDS011;39539;52.202;9.876;2022-10-16T01:33:44;3.20;;;2.95;;
19675;SDS011;39539;52.202;9.876;2022-10-16T01:36:18;3.30;;;2.97;;
19675;SDS011;39539;52.202;9.876;2022-10-16T01:38:51;3.33;;;3.13;;
19675;SDS011;39539;52.202;9.876;2022-10-16T01:41:28;3.35;;;3.05;;
19675;SDS011;39539;52.202;9.876;2022-10-16T01:44:01;3.45;;;3.15;;
19675;SDS011;39539;52.202;9.876;2022-10-16T01:46:30;3.75;;;3.45;;
19675;SDS011;39539;52.202;9.876;2022-10-16T01:48:57;2.97;;;2.78;;
19675;SDS011;39539;52.202;9.876;2022-10-16T01:51:26;2.85;;;2.75;;
19675;SDS011;39539;52.202;9.876;2022-10-16T01:53:54;6.82;;;3.15;;
19675;SDS011;39539;52.202;9.876;2022-10-16T01:56:22;2.80;;;2.70;;
19675;SDS011;39539;52.202;9.876;2022-10-16T01:58:54;2.83;;;2.63;;
19675;SDS011;39539;52.202;9.876;2022-10-16T02:01:24;3.13;;;2.92;;
19675;SDS011;39539;52.202;9.876;2022-10-16T02:03:54;3.30;;;3.00;;
19675;SDS011;39539;52.202;9.876;2022-10-16T02:06:22;3.00;;;2.80;;
19675;SDS011;39539;52.202;9.876;2022-10-16T02:08:48;2.80;;;2.63;;
19675;SDS011;39539;52.202;9.876;2022-10-16T02:11:14;3.38;;;3.08;;
19675;SDS011;39539;52.202;9.876;2022-10-16T02:13:50;4.55;;;2.78;;
19675;SDS011;39539;52.202;9.876;2022-10-16T02:16:20;3.60;;;3.15;;
19675;SDS011;39539;52.202;9.876;2022-10-16T02:18:45;2.85;;;2.65;;
19675;SDS011;39539;52.202;9.876;2022-10-16T02:21:22;3.00;;;2.80;;
19675;SDS011;39539;52.202;9.876;2022-10-16T02:23:53;3.22;;;2.92;;
19675;SDS011;39539;52.202;9.876;2022-10-16T02:26:35;3.35;;;3.10;;
19675;SDS011;39539;52.202;9.876;2022-10-16T02:29:08;2.80;;;2.60;;
19675;SDS011;39539;52.202;9.876;2022-10-16T02:31:38;2.88;;;2.67;;
19675;SDS011;39539;52.202;9.876;2022-10-16T02:34:09;2.58;;;2.38;;
19675;SDS011;39539;52.202;9.876;2022-10-16T02:36:36;3.10;;;2.90;;
19675;SDS011;39539;52.202;9.876;2022-10-16T02:39:04;5.53;;;3.15;;
19675;SDS011;39539;52.202;9.876;2022-10-16T02:41:31;2.50;;;2.35;;
19675;SDS011;39539;52.202;9.876;2022-10-16T02:43:57;2.97;;;2.78;;
19675;SDS011;39539;52.202;9.876;2022-10-16T02:46:22;4.90;;;2.90;;
19675;SDS011;39539;52.202;9.876;2022-10-16T02:48:48;3.20;;;2.90;;
19675;SDS011;39539;52.202;9.876;2022-10-16T02:51:13;3.00;;;2.70;;
19675;SDS011;39539;52.202;9.876;2022-10-16T02:53:39;2.60;;;2.40;;
19675;SDS011;39539;52.202;9.876;2022-10-16T02:56:04;3.20;;;2.35;;
19675;SDS011;39539;52.202;9.876;2022-10-16T02:58:29;2.22;;;2.08;;
19675;SDS011;39539;52.202;9.876;2022-10-16T03:00:55;2.20;;;2.08;;
19675;SDS011;39539;52.202;9.876;2022-10-16T03:03:20;2.25;;;2.15;;
19675;SDS011;39539;52.202;9.876;2022-10-16T03:05:46;2.85;;;2.38;;
19675;SDS011;39539;52.202;9.876;2022-10-16T03:08:12;2.88;;;2.60;;
19675;SDS011;39539;52.202;9.876;2022-10-16T03:10:38;3.25;;;2.67;;
19675;SDS011;39539;52.202;9.876;2022-10-16T03:13:03;4.38;;;2.65;;
19675;SDS011;39539;52.202;9.876;2022-10-16T03:15:29;2.83;;;2.63;;
19675;SDS011;39539;52.202;9.876;2022-10-16T03:17:55;3.40;;;2.63;;
19675;SDS011;39539;52.202;9.876;2022-10-16T03:20:22;3.60;;;2.72;;
19675;SDS011;39539;52.202;9.876;2022-10-16T03:22:48;3.05;;;2.85;;
19675;SDS011;39539;52.202;9.876;2022-10-16T03:25:13;4.15;;;2.80;;
19675;SDS011;39539;52.202;9.876;2022-10-16T03:27:39;2.75;;;2.55;;
19675;SDS011;39539;52.202;9.876;2022-10-16T03:30:04;3.75;;;3.15;;
19675;SDS011;39539;52.202;9.876;2022-10-16T03:32:30;2.83;;;2.33;;
19675;SDS011;39539;52.202;9.876;2022-10-16T03:34:55;2.78;;;2.58;;
19675;SDS011;39539;52.202;9.876;2022-10-16T03:37:21;2.80;;;2.60;;
19675;SDS011;39539;52.202;9.876;2022-10-16T03:39:47;3.70;;;2.50;;
19675;SDS011;39539;52.202;9.876;2022-10-16T03:42:12;2.80;;;2.60;;
19675;SDS011;39539;52.202;9.876;2022-10-16T03:44:37;2.63;;;2.42;;
19675;SDS011;39539;52.202;9.876;2022-10-16T03:47:03;3.63;;;2.55;;
19675;SDS011;39539;52.202;9.876;2022-10-16T03:49:28;3.50;;;3.05;;
19675;SDS011;39539;52.202;9.876;2022-10-16T03:51:53;3.05;;;2.85;;
19675;SDS011;39539;52.202;9.876;2022-10-16T03:54:20;3.20;;;3.00;;
19675;SDS011;39539;52.202;9.876;2022-10-16T03:56:48;5.18;;;4.70;;
19675;SDS011;39539;52.202;9.876;2022-10-16T03:59:13;7.38;;;6.68;;
19675;SDS011;39539;52.202;9.876;2022-10-16T04:01:38;6.15;;;4.82;;
19675;SDS011;39539;52.202;9.876;2022-10-16T04:04:04;3.70;;;3.40;;
19675;SDS011;39539;52.202;9.876;2022-10-16T04:06:29;3.95;;;2.60;;
19675;SDS011;39539;52.202;9.876;2022-10-16T04:08:55;2.63;;;2.42;;
19675;SDS011;39539;52.202;9.876;2022-10-16T04:11:21;2.50;;;2.30;;
19675;SDS011;39539;52.202;9.876;2022-10-16T04:13:46;3.15;;;2.60;;
19675;SDS011;39539;52.202;9.876;2022-10-16T04:16:12;2.90;;;2.40;;
19675;SDS011;39539;52.202;9.876;2022-10-16T04:18:37;2.45;;;2.25;;
19675;SDS011;39539;52.202;9.876;2022-10-16T04:21:03;3.20;;;2.40;;
19675;SDS011;39539;52.202;9.876;2022-10-16T04:23:29;3.15;;;2.47;;
19675;SDS011;39539;52.202;9.876;2022-10-16T04:25:55;2.78;;;2.58;;
19675;SDS011;39539;52.202;9.876;2022-10-16T04:28:20;3.58;;;2.40;;
19675;SDS011;39539;52.202;9.876;2022-10-16T04:30:46;2.75;;;2.55;;
19675;SDS011;39539;52.202;9.876;2022-10-16T04:33:11;2.40;;;2.30;;
19675;SDS011;39539;52.202;9.876;2022-10-16T04:35:37;2.67;;;2.47;;
19675;SDS011;39539;52.202;9.876;2022-10-16T04:38:03;2.30;;;2.20;;
19675;SDS011;39539;52.202;9.876;2022-10-16T04:40:29;3.28;;;2.35;;
19675;SDS011;39539;52.202;9.876;2022-10-16T04:42:57;3.53;;;2.28;;
19675;SDS011;39539;52.202;9.876;2022-10-16T04:45:24;2.63;;;2.28;;
19675;SDS011;39539;52.202;9.876;2022-10-16T04:47:50;2.40;;;2.20;;
19675;SDS011;39539;52.202;9.876;2022-10-16T04:50:15;3.20;;;2.20;;
19675;SDS011;39539;52.202;9.876;2022-10-16T04:52:41;2.30;;;2.20;;
19675;SDS011;39539;52.202;9.876;2022-10-16T04:55:07;2.70;;;2.50;;
19675;SDS011;39539;52.202;9.876;2022-10-16T04:57:32;2.65;;;2.03;;
19675;SDS011;39539;52.202;9.876;2022-10-16T04:59:58;2.42;;;2.22;;
19675;SDS011;39539;52.202;9.876;2022-10-16T05:02:24;3.05;;;2.55;;
19675;SDS011;39539;52.202;9.876;2022-10-16T05:04:50;2.92;;;2.05;;
19675;SDS011;39539;52.202;9.876;2022-10-16T05:07:16;2.47;;;2.28;;
19675;SDS011;39539;52.202;9.876;2022-10-16T05:09:41;2.28;;;2.13;;
19675;SDS011;39539;52.202;9.876;2022-10-16T05:12:07;2.45;;;2.25;;
19675;SDS011;39539;52.202;9.876;2022-10-16T05:14:32;3.10;;;2.22;;
19675;SDS011;39539;52.202;9.876;2022-10-16T05:16:58;2.28;;;2.08;;
19675;SDS011;39539;52.202;9.876;2022-10-16T05:19:24;3.83;;;2.17;;
19675;SDS011;39539;52.202;9.876;2022-10-16T05:21:49;4.47;;;2.28;;
19675;SDS011;39539;52.202;9.876;2022-10-16T05:24:15;2.60;;;2.15;;
19675;SDS011;39539;52.202;9.876;2022-10-16T05:26:40;2.30;;;2.10;;
19675;SDS011;39539;52.202;9.876;2022-10-16T05:29:06;3.00;;;2.03;;
19675;SDS011;39539;52.202;9.876;2022-10-16T05:31:31;3.78;;;2.20;;
19675;SDS011;39539;52.202;9.876;2022-10-16T05:33:59;2.25;;;2.10;;
19675;SDS011;39539;52.202;9.876;2022-10-16T05:36:25;2.17;;;2.05;;
19675;SDS011;39539;52.202;9.876;2022-10-16T05:38:51;2.15;;;2.05;;
19675;SDS011;39539;52.202;9.876;2022-10-16T05:41:16;2.38;;;2.28;;
19675;SDS011;39539;52.202;9.876;2022-10-16T05:43:46;3.08;;;2.88;;
19675;SDS011;39539;52.202;9.876;2022-10-16T05:46:12;2.70;;;2.50;;
19675;SDS011;39539;52.202;9.876;2022-10-16T05:48:37;3.10;;;2.90;;
19675;SDS011;39539;52.202;9.876;2022-10-16T05:51:04;3.40;;;3.20;;
19675;SDS011;39539;52.202;9.876;2022-10-16T05:53:34;3.42;;;3.22;;
19675;SDS011;39539;52.202;9.876;2022-10-16T05:56:01;3.20;;;2.92;;
19675;SDS011;39539;52.202;9.876;2022-10-16T05:58:33;3.20;;;3.00;;
19675;SDS011;39539;52.202;9.876;2022-10-16T06:01:09;3.67;;;3.38;;
19675;SDS011;39539;52.202;9.876;2022-10-16T06:03:34;3.33;;;3.13;;
19675;SDS011;39539;52.202;9.876;2022-10-16T06:06:06;3.25;;;2.65;;
19675;SDS011;39539;52.202;9.876;2022-10-16T06:08:40;3.28;;;2.97;;
19675;SDS011;39539;52.202;9.876;2022-10-16T06:11:11;2.95;;;2.75;;
19675;SDS011;39539;52.202;9.876;2022-10-16T06:13:39;3.03;;;2.83;;
19675;SDS011;39539;52.202;9.876;2022-10-16T06:16:07;4.63;;;3.33;;
19675;SDS011;39539;52.202;9.876;2022-10-16T06:18:33;3.05;;;2.85;;
19675;SDS011;39539;52.202;9.876;2022-10-16T06:20:58;2.78;;;2.58;;
19675;SDS011;39539;52.202;9.876;2022-10-16T06:23:24;3.00;;;2.78;;
19675;SDS011;39539;52.202;9.876;2022-10-16T06:25:50;2.88;;;2.33;;
19675;SDS011;39539;52.202;9.876;2022-10-16T06:28:16;2.40;;;2.20;;
19675;SDS011;39539;52.202;9.876;2022-10-16T06:30:42;2.60;;;2.17;;
19675;SDS011;39539;52.202;9.876;2022-10-16T06:33:10;2.78;;;2.40;;
19675;SDS011;39539;52.202;9.876;2022-10-16T06:35:36;2.60;;;2.40;;
19675;SDS011;39539;52.202;9.876;2022-10-16T06:38:01;2.20;;;2.10;;
19675;SDS011;39539;52.202;9.876;2022-10-16T06:40:27;2.35;;;2.15;;
19675;SDS011;39539;52.202;9.876;2022-10-16T06:42:54;2.30;;;2.10;;
19675;SDS011;39539;52.202;9.876;2022-10-16T06:45:20;2.08;;;1.90;;
19675;SDS011;39539;52.202;9.876;2022-10-16T06:47:45;2.03;;;1.90;;
19675;SDS011;39539;52.202;9.876;2022-10-16T06:50:11;1.42;;;1.33;;
19675;SDS011;39539;52.202;9.876;2022-10-16T06:52:36;2.13;;;1.55;;
19675;SDS011;39539;52.202;9.876;2022-10-16T06:55:01;1.38;;;1.30;;
19675;SDS011;39539;52.202;9.876;2022-10-16T06:57:28;1.10;;;1.00;;
19675;SDS011;39539;52.202;9.876;2022-10-16T06:59:53;1.45;;;1.15;;
19675;SDS011;39539;52.202;9.876;2022-10-16T07:02:19;1.77;;;1.00;;
19675;SDS011;39539;52.202;9.876;2022-10-16T07:04:44;0.95;;;0.93;;
19675;SDS011;39539;52.202;9.876;2022-10-16T07:07:09;1.67;;;0.70;;
19675;SDS011;39539;52.202;9.876;2022-10-16T07:09:35;0.98;;;0.80;;
19675;SDS011;39539;52.202;9.876;2022-10-16T07:12:00;0.65;;;0.65;;
19675;SDS011;39539;52.202;9.876;2022-10-16T07:14:26;0.65;;;0.65;;
19675;SDS011;39539;52.202;9.876;2022-10-16T07:16:51;0.60;;;0.60;;
19675;SDS011;39539;52.202;9.876;2022-10-16T07:19:17;0.63;;;0.60;;
19675;SDS011;39539;52.202;9.876;2022-10-16T07:21:43;0.73;;;0.50;;
19675;SDS011;39539;52.202;9.876;2022-10-16T07:24:13;2.55;;;0.73;;
19675;SDS011;39539;52.202;9.876;2022-10-16T07:26:40;0.70;;;0.70;;
19675;SDS011;39539;52.202;9.876;2022-10-16T07:29:17;0.70;;;0.70;;
19675;SDS011;39539;52.202;9.876;2022-10-16T07:31:44;0.57;;;0.57;;
19675;SDS011;39539;52.202;9.876;2022-10-16T07:34:11;0.88;;;0.60;;
19675;SDS011;39539;52.202;9.876;2022-10-16T07:36:37;0.82;;;0.77;;
19675;SDS011;39539;52.202;9.876;2022-10-16T07:39:03;1.85;;;0.60;;
19675;SDS011;39539;52.202;9.876;2022-10-16T07:41:28;0.70;;;0.70;;
19675;SDS011;39539;52.202;9.876;2022-10-16T07:43:54;0.70;;;0.60;;
19675;SDS011;39539;52.202;9.876;2022-10-16T07:46:22;1.95;;;0.82;;
19675;SDS011;39539;52.202;9.876;2022-10-16T07:48:49;0.50;;;0.50;;
19675;SDS011;39539;52.202;9.876;2022-10-16T07:51:16;1.00;;;0.70;;
19675;SDS011;39539;52.202;9.876;2022-10-16T07:53:46;0.50;;;0.50;;
19675;SDS011;39539;52.202;9.876;2022-10-16T07:56:12;0.50;;;0.50;;
19675;SDS011;39539;52.202;9.876;2022-10-16T07:58:38;0.68;;;0.68;;
19675;SDS011;39539;52.202;9.876;2022-10-16T08:01:05;1.80;;;0.63;;
19675;SDS011;39539;52.202;9.876;2022-10-16T08:03:32;2.28;;;0.50;;
19675;SDS011;39539;52.202;9.876;2022-10-16T08:05:57;1.45;;;0.80;;
19675;SDS011;39539;52.202;9.876;2022-10-16T08:08:23;0.88;;;0.60;;
19675;SDS011;39539;52.202;9.876;2022-10-16T08:10:49;0.80;;;0.60;;
19675;SDS011;39539;52.202;9.876;2022-10-16T08:13:15;1.15;;;0.60;;
19675;SDS011;39539;52.202;9.876;2022-10-16T08:15:41;1.95;;;0.70;;
19675;SDS011;39539;52.202;9.876;2022-10-16T08:18:08;2.08;;;0.90;;
19675;SDS011;39539;52.202;9.876;2022-10-16T08:20:35;1.27;;;0.80;;
19675;SDS011;39539;52.202;9.876;2022-10-16T08:23:00;1.73;;;0.70;;
19675;SDS011;39539;52.202;9.876;2022-10-16T08:25:26;1.38;;;0.70;;
19675;SDS011;39539;52.202;9.876;2022-10-16T08:27:51;2.08;;;1.15;;
19675;SDS011;39539;52.202;9.876;2022-10-16T08:30:17;1.50;;;0.90;;
19675;SDS011;39539;52.202;9.876;2022-10-16T08:32:44;0.70;;;0.70;;
19675;SDS011;39539;52.202;9.876;2022-10-16T08:35:10;0.88;;;0.80;;
19675;SDS011;39539;52.202;9.876;2022-10-16T08:37:37;1.13;;;0.90;;
19675;SDS011;39539;52.202;9.876;2022-10-16T08:40:03;1.67;;;0.73;;
19675;SDS011;39539;52.202;9.876;2022-10-16T08:48:02;0.80;;;0.60;;
19675;SDS011;39539;52.202;9.876;2022-10-16T08:50:39;0.95;;;0.60;;
19675;SDS011;39539;52.202;9.876;2022-10-16T08:53:05;1.23;;;0.70;;
19675;SDS011;39539;52.202;9.876;2022-10-16T08:55:33;1.50;;;0.73;;
19675;SDS011;39539;52.202;9.876;2022-10-16T08:58:13;0.60;;;0.60;;
19675;SDS011;39539;52.202;9.876;2022-10-16T09:00:41;1.02;;;0.60;;
19675;SDS011;39539;52.202;9.876;2022-10-16T09:03:14;0.90;;;0.60;;
19675;SDS011;39539;52.202;9.876;2022-10-16T09:08:37;0.60;;;0.60;;
19675;SDS011;39539;52.202;9.876;2022-10-16T09:11:33;0.73;;;0.60;;
19675;SDS011;39539;52.202;9.876;2022-10-16T09:14:18;0.95;;;0.60;;
19675;SDS011;39539;52.202;9.876;2022-10-16T09:20:18;1.20;;;0.90;;
19675;SDS011;39539;52.202;9.876;2022-10-16T09:22:51;1.52;;;0.60;;
19675;SDS011;39539;52.202;9.876;2022-10-16T09:25:25;3.70;;;0.70;;
19675;SDS011;39539;52.202;9.876;2022-10-16T09:27:51;0.75;;;0.75;;
19675;SDS011;39539;52.202;9.876;2022-10-16T09:30:19;1.98;;;0.90;;
19675;SDS011;39539;52.202;9.876;2022-10-16T09:32:46;2.58;;;0.70;;
19675;SDS011;39539;52.202;9.876;2022-10-16T09:35:20;2.35;;;0.70;;
19675;SDS011;39539;52.202;9.876;2022-10-16T09:37:51;0.93;;;0.75;;
19675;SDS011;39539;52.202;9.876;2022-10-16T09:40:26;1.77;;;0.60;;
19675;SDS011;39539;52.202;9.876;2022-10-16T09:45:42;2.28;;;0.80;;
19675;SDS011;39539;52.202;9.876;2022-10-16T09:48:11;0.70;;;0.60;;
19675;SDS011;39539;52.202;9.876;2022-10-16T09:50:37;0.75;;;0.75;;
19675;SDS011;39539;52.202;9.876;2022-10-16T09:53:08;1.02;;;0.80;;
19675;SDS011;39539;52.202;9.876;2022-10-16T09:55:49;0.70;;;0.57;;
19675;SDS011;39539;52.202;9.876;2022-10-16T09:58:18;1.35;;;0.80;;
19675;SDS011;39539;52.202;9.876;2022-10-16T10:00:53;2.05;;;0.80;;
19675;SDS011;39539;52.202;9.876;2022-10-16T10:03:41;1.92;;;0.73;;
19675;SDS011;39539;52.202;9.876;2022-10-16T10:09:05;2.85;;;0.90;;
19675;SDS011;39539;52.202;9.876;2022-10-16T10:11:37;1.05;;;0.73;;
19675;SDS011;39539;52.202;9.876;2022-10-16T10:14:27;2.50;;;0.80;;
19675;SDS011;39539;52.202;9.876;2022-10-16T10:22:17;2.05;;;0.68;;
19675;SDS011;39539;52.202;9.876;2022-10-16T10:24:56;2.05;;;0.52;;
19675;SDS011;39539;52.202;9.876;2022-10-16T10:27:27;1.10;;;0.70;;
19675;SDS011;39539;52.202;9.876;2022-10-16T10:43:29;1.27;;;0.80;;
19675;SDS011;39539;52.202;9.876;2022-10-16T10:51:45;0.85;;;0.45;;
19675;SDS011;39539;52.202;9.876;2022-10-16T10:57:12;1.30;;;0.50;;
19675;SDS011;39539;52.202;9.876;2022-10-16T11:00:16;3.03;;;0.52;;
19675;SDS011;39539;52.202;9.876;2022-10-16T11:11:19;1.48;;;0.68;;
19675;SDS011;39539;52.202;9.876;2022-10-16T11:21:59;1.13;;;1.02;;
19675;SDS011;39539;52.202;9.876;2022-10-16T11:27:17;1.90;;;0.40;;
19675;SDS011;39539;52.202;9.876;2022-10-16T11:30:12;0.75;;;0.40;;
19675;SDS011;39539;52.202;9.876;2022-10-16T11:32:48;1.52;;;0.60;;
19675;SDS011;39539;52.202;9.876;2022-10-16T11:35:24;0.68;;;0.50;;
19675;SDS011;39539;52.202;9.876;2022-10-16T11:37:58;1.80;;;0.55;;
19675;SDS011;39539;52.202;9.876;2022-10-16T11:40:29;1.33;;;0.40;;
19675;SDS011;39539;52.202;9.876;2022-10-16T11:43:10;0.75;;;0.40;;
19675;SDS011;39539;52.202;9.876;2022-10-16T11:45:45;1.63;;;0.45;;
19675;SDS011;39539;52.202;9.876;2022-10-16T11:50:41;1.38;;;0.82;;
19675;SDS011;39539;52.202;9.876;2022-10-16T11:53:16;0.40;;;0.40;;
19675;SDS011;39539;52.202;9.876;2022-10-16T11:56:00;2.00;;;0.40;;
19675;SDS011;39539;52.202;9.876;2022-10-16T11:58:27;1.10;;;0.40;;
19675;SDS011;39539;52.202;9.876;2022-10-16T12:01:15;0.38;;;0.30;;
19675;SDS011;39539;52.202;9.876;2022-10-16T12:08:54;0.82;;;0.35;;
19675;SDS011;39539;52.202;9.876;2022-10-16T12:11:31;0.90;;;0.20;;
19675;SDS011;39539;52.202;9.876;2022-10-16T12:16:55;0.65;;;0.30;;
19675;SDS011;39539;52.202;9.876;2022-10-16T12:19:21;0.95;;;0.40;;
19675;SDS011;39539;52.202;9.876;2022-10-16T12:21:48;1.38;;;0.40;;
19675;SDS011;39539;52.202;9.876;2022-10-16T12:27:06;0.90;;;0.35;;
19675;SDS011;39539;52.202;9.876;2022-10-16T12:29:48;0.77;;;0.30;;
19675;SDS011;39539;52.202;9.876;2022-10-16T12:32:28;2.75;;;0.40;;
19675;SDS011;39539;52.202;9.876;2022-10-16T12:34:56;0.80;;;0.35;;
19675;SDS011;39539;52.202;9.876;2022-10-16T12:37:27;0.50;;;0.30;;
19675;SDS011;39539;52.202;9.876;2022-10-16T12:39:56;0.95;;;0.70;;
19675;SDS011;39539;52.202;9.876;2022-10-16T12:44:51;0.80;;;0.40;;
19675;SDS011;39539;52.202;9.876;2022-10-16T12:47:22;0.90;;;0.25;;
19675;SDS011;39539;52.202;9.876;2022-10-16T12:49:59;1.50;;;0.35;;
19675;SDS011;39539;52.202;9.876;2022-10-16T12:52:25;1.23;;;0.30;;
19675;SDS011;39539;52.202;9.876;2022-10-16T12:54:56;2.03;;;0.60;;
19675;SDS011;39539;52.202;9.876;2022-10-16T13:00:26;1.40;;;0.52;;
19675;SDS011;39539;52.202;9.876;2022-10-16T13:19:32;1.35;;;0.40;;
19675;SDS011;39539;52.202;9.876;2022-10-16T13:22:33;1.25;;;0.32;;
19675;SDS011;39539;52.202;9.876;2022-10-16T13:27:44;0.55;;;0.40;;
19675;SDS011;39539;52.202;9.876;2022-10-16T13:32:48;0.43;;;0.30;;
19675;SDS011;39539;52.202;9.876;2022-10-16T13:35:23;0.95;;;0.40;;
19675;SDS011;39539;52.202;9.876;2022-10-16T13:38:12;0.77;;;0.40;;
19675;SDS011;39539;52.202;9.876;2022-10-16T13:40:49;1.48;;;0.52;;
19675;SDS011;39539;52.202;9.876;2022-10-16T13:43:48;0.57;;;0.40;;
19675;SDS011;39539;52.202;9.876;2022-10-16T13:46:16;1.30;;;0.38;;
19675;SDS011;39539;52.202;9.876;2022-10-16T13:48:44;0.88;;;0.38;;
19675;SDS011;39539;52.202;9.876;2022-10-16T13:51:20;1.30;;;0.50;;
19675;SDS011;39539;52.202;9.876;2022-10-16T13:53:46;0.82;;;0.40;;
19675;SDS011;39539;52.202;9.876;2022-10-16T13:56:13;2.05;;;0.30;;
19675;SDS011;39539;52.202;9.876;2022-10-16T13:58:39;1.13;;;0.52;;
19675;SDS011;39539;52.202;9.876;2022-10-16T14:01:15;1.05;;;0.40;;
19675;SDS011;39539;52.202;9.876;2022-10-16T14:03:44;0.93;;;0.40;;
19675;SDS011;39539;52.202;9.876;2022-10-16T14:06:12;0.60;;;0.40;;
19675;SDS011;39539;52.202;9.876;2022-10-16T14:08:53;0.60;;;0.30;;
19675;SDS011;39539;52.202;9.876;2022-10-16T14:11:48;0.40;;;0.40;;
19675;SDS011;39539;52.202;9.876;2022-10-16T14:14:16;4.45;;;0.40;;
19675;SDS011;39539;52.202;9.876;2022-10-16T14:16:43;1.40;;;0.30;;
19675;SDS011;39539;52.202;9.876;2022-10-16T14:19:14;0.43;;;0.40;;
19675;SDS011;39539;52.202;9.876;2022-10-16T14:21:48;1.55;;;0.30;;
19675;SDS011;39539;52.202;9.876;2022-10-16T14:26:57;0.60;;;0.40;;
19675;SDS011;39539;52.202;9.876;2022-10-16T14:29:24;0.82;;;0.30;;
19675;SDS011;39539;52.202;9.876;2022-10-16T14:31:54;0.57;;;0.35;;
19675;SDS011;39539;52.202;9.876;2022-10-16T14:34:27;0.82;;;0.50;;
19675;SDS011;39539;52.202;9.876;2022-10-16T14:36:56;0.95;;;0.40;;
19675;SDS011;39539;52.202;9.876;2022-10-16T14:39:27;0.95;;;0.40;;
19675;SDS011;39539;52.202;9.876;2022-10-16T14:41:54;0.88;;;0.43;;
19675;SDS011;39539;52.202;9.876;2022-10-16T14:44:22;0.63;;;0.32;;
19675;SDS011;39539;52.202;9.876;2022-10-16T14:46:54;1.23;;;0.40;;
19675;SDS011;39539;52.202;9.876;2022-10-16T14:49:20;1.42;;;0.47;;
19675;SDS011;39539;52.202;9.876;2022-10-16T14:51:47;1.38;;;0.65;;
19675;SDS011;39539;52.202;9.876;2022-10-16T14:54:16;1.88;;;1.38;;
19675;SDS011;39539;52.202;9.876;2022-10-16T14:59:22;1.27;;;0.80;;
19675;SDS011;39539;52.202;9.876;2022-10-16T15:01:49;1.35;;;0.63;;
19675;SDS011;39539;52.202;9.876;2022-10-16T15:04:15;1.42;;;0.80;;
19675;SDS011;39539;52.202;9.876;2022-10-16T15:06:41;2.10;;;0.80;;
19675;SDS011;39539;52.202;9.876;2022-10-16T15:09:07;1.38;;;0.90;;
19675;SDS011;39539;52.202;9.876;2022-10-16T15:11:32;0.77;;;0.70;;
19675;SDS011;39539;52.202;9.876;2022-10-16T15:13:59;1.05;;;0.70;;
19675;SDS011;39539;52.202;9.876;2022-10-16T15:16:24;0.47;;;0.47;;
19675;SDS011;39539;52.202;9.876;2022-10-16T15:18:50;1.80;;;0.68;;
19675;SDS011;39539;52.202;9.876;2022-10-16T15:21:34;1.13;;;0.90;;
19675;SDS011;39539;52.202;9.876;2022-10-16T15:23:59;2.70;;;0.93;;
19675;SDS011;39539;52.202;9.876;2022-10-16T15:26:26;1.67;;;1.00;;
19675;SDS011;39539;52.202;9.876;2022-10-16T15:28:52;1.73;;;1.00;;
19675;SDS011;39539;52.202;9.876;2022-10-16T15:31:18;2.47;;;1.08;;
19675;SDS011;39539;52.202;9.876;2022-10-16T15:33:43;2.95;;;1.13;;
19675;SDS011;39539;52.202;9.876;2022-10-16T15:36:12;1.30;;;0.80;;
19675;SDS011;39539;52.202;9.876;2022-10-16T15:38:38;2.30;;;0.88;;
19675;SDS011;39539;52.202;9.876;2022-10-16T15:41:04;1.55;;;1.00;;
19675;SDS011;39539;52.202;9.876;2022-10-16T15:43:29;2.33;;;0.80;;
19675;SDS011;39539;52.202;9.876;2022-10-16T15:46:01;3.77;;;1.20;;
19675;SDS011;39539;52.202;9.876;2022-10-16T15:48:30;3.78;;;1.30;;
19675;SDS011;39539;52.202;9.876;2022-10-16T15:50:56;2.60;;;0.98;;
19675;SDS011;39539;52.202;9.876;2022-10-16T15:53:21;1.45;;;0.80;;
19675;SDS011;39539;52.202;9.876;2022-10-16T15:55:47;1.98;;;1.00;;
19675;SDS011;39539;52.202;9.876;2022-10-16T15:58:12;1.10;;;0.88;;
19675;SDS011;39539;52.202;9.876;2022-10-16T16:00:37;2.50;;;0.90;;
19675;SDS011;39539;52.202;9.876;2022-10-16T16:03:03;0.80;;;0.50;;
19675;SDS011;39539;52.202;9.876;2022-10-16T16:05:29;2.25;;;0.63;;
19675;SDS011;39539;52.202;9.876;2022-10-16T16:07:54;2.60;;;0.88;;
19675;SDS011;39539;52.202;9.876;2022-10-16T16:10:19;0.77;;;0.40;;
19675;SDS011;39539;52.202;9.876;2022-10-16T16:12:49;2.25;;;0.50;;
19675;SDS011;39539;52.202;9.876;2022-10-16T16:15:17;1.50;;;0.52;;
19675;SDS011;39539;52.202;9.876;2022-10-16T16:17:44;1.90;;;0.70;;
19675;SDS011;39539;52.202;9.876;2022-10-16T16:20:09;1.40;;;0.98;;
19675;SDS011;39539;52.202;9.876;2022-10-16T16:22:36;3.70;;;0.90;;
19675;SDS011;39539;52.202;9.876;2022-10-16T16:25:01;1.48;;;0.70;;
19675;SDS011;39539;52.202;9.876;2022-10-16T16:27:26;0.85;;;0.60;;
19675;SDS011;39539;52.202;9.876;2022-10-16T16:29:54;2.75;;;0.60;;
19675;SDS011;39539;52.202;9.876;2022-10-16T16:32:20;0.77;;;0.60;;
19675;SDS011;39539;52.202;9.876;2022-10-16T16:34:45;1.30;;;0.60;;
19675;SDS011;39539;52.202;9.876;2022-10-16T16:37:11;1.67;;;0.80;;
19675;SDS011;39539;52.202;9.876;2022-10-16T16:39:36;1.70;;;0.98;;
19675;SDS011;39539;52.202;9.876;2022-10-16T16:42:01;1.13;;;1.02;;
19675;SDS011;39539;52.202;9.876;2022-10-16T16:44:29;1.73;;;1.25;;
19675;SDS011;39539;52.202;9.876;2022-10-16T16:46:55;1.10;;;1.00;;
19675;SDS011;39539;52.202;9.876;2022-10-16T16:49:20;1.15;;;0.70;;
19675;SDS011;39539;52.202;9.876;2022-10-16T16:51:46;1.65;;;0.70;;
19675;SDS011;39539;52.202;9.876;2022-10-16T16:54:11;1.42;;;0.80;;
19675;SDS011;39539;52.202;9.876;2022-10-16T16:56:38;1.13;;;0.80;;
19675;SDS011;39539;52.202;9.876;2022-10-16T16:59:10;4.03;;;0.98;;
19675;SDS011;39539;52.202;9.876;2022-10-16T17:01:37;1.15;;;0.70;;
19675;SDS011;39539;52.202;9.876;2022-10-16T17:04:03;1.75;;;0.90;;